Kulgera, Australia
Current Conditions -  °F | °C
As of 7:00 AM on Monday 24 Nov 2014 (Local Time) from YBAS Reporting Station
Broken Clouds Broken Clouds  
Wind Chill: 77°   Ceiling: 17000
Heat Index: 79°   Visibility: 6mi
Dew Point: 64°   Wind: 12mph
Humidity: 65%   Direction: 330°NNW
Pressure: NA   Gusts: NA
Location:  25.84°S, 133.32°E
Report Text: YBAS 232200Z 33010KT 9999 FEW080 SCT100 BKN170 25/18 Q1444
Loading
Personal Weather Stations






























Interactive Weather Map New forecast layout! Learn more

10-Day Weather Forecast

Advertisements
Track Severe Weather on mobile